Time;durP1;ratioP1;P1;durP2;ratioP2;P2;SDS_P1;SDS_P2;PMS_P1;PMS_P2;Temp;Humidity;BMP_temperature;BMP_pressure;BME280_temperature;BME280_humidity;BME280_pressure;Samples;Min_cycle;Max_cycle;Signal;HPM_P1;HPM_P2
2022/10/22 00:01:17;;;;;;;20.67;7.55;;;;;;;14.93;69.24;92539.44;2071327;69;20175;-76
2022/10/22 00:03:42;;;;;;;16.45;7.38;;;;;;;14.95;68.60;92547.31;2071425;69;20251;-77
2022/10/22 00:06:08;;;;;;;16.42;7.40;;;;;;;14.96;68.53;92531.75;2071372;69;20251;-77
2022/10/22 00:08:34;;;;;;;15.98;7.38;;;;;;;14.96;69.40;92540.25;2071166;69;20132;-76
2022/10/22 00:11:07;;;;;;;14.50;7.07;;;;;;;14.95;69.88;92539.53;2071248;69;20148;-75
2022/10/22 00:13:32;;;;;;;17.90;7.30;;;;;;;14.93;69.68;92538.69;2071571;69;20136;-76
2022/10/22 00:15:58;;;;;;;15.38;7.47;;;;;;;14.95;69.68;92535.97;2071343;69;20172;-77
2022/10/22 00:18:24;;;;;;;17.05;6.93;;;;;;;14.91;69.41;92525.19;2071517;69;20151;-78
2022/10/22 00:20:49;;;;;;;17.65;6.80;;;;;;;14.92;67.61;92532.31;2071335;69;20188;-75
2022/10/22 00:23:15;;;;;;;19.63;8.43;;;;;;;14.78;71.53;92528.88;2068038;69;20625;-77
2022/10/22 00:25:40;;;;;;;20.70;7.65;;;;;;;14.87;70.28;92524.28;2071206;69;20160;-76
2022/10/22 00:28:06;;;;;;;16.88;7.15;;;;;;;14.89;69.51;92522.28;2071367;69;20136;-77
2022/10/22 00:30:32;;;;;;;17.92;7.90;;;;;;;14.87;70.35;92513.69;2071304;69;20121;-77
2022/10/22 00:32:59;;;;;;;19.20;7.57;;;;;;;14.89;68.99;92510.94;2071223;69;20160;-76
2022/10/22 00:35:24;;;;;;;16.73;7.22;;;;;;;14.89;69.68;92507.34;2067975;69;20543;-78
2022/10/22 00:37:50;;;;;;;13.50;6.35;;;;;;;14.90;69.71;92515.22;2068380;69;20186;-78
2022/10/22 00:40:17;;;;;;;15.93;6.80;;;;;;;14.87;70.69;92516.50;2071089;69;20129;-75
2022/10/22 00:42:43;;;;;;;12.82;6.65;;;;;;;14.91;69.04;92510.28;2071463;69;20145;-77
2022/10/22 00:45:11;;;;;;;17.95;7.00;;;;;;;14.95;67.72;92507.63;2071331;69;20148;-78
2022/10/22 00:47:39;;;;;;;18.65;7.28;;;;;;;14.42;71.95;92508.91;2071193;69;20237;-78
2022/10/22 00:50:10;;;;;;;16.85;7.18;;;;;;;14.58;70.80;92505.34;2071236;69;20163;-78
2022/10/22 00:52:36;;;;;;;17.80;6.90;;;;;;;14.71;69.47;92499.56;2071308;69;20175;-77
2022/10/22 00:55:03;;;;;;;14.20;6.85;;;;;;;14.74;70.78;92484.09;2067856;69;20150;-77
2022/10/22 00:57:28;;;;;;;14.60;7.40;;;;;;;14.83;68.08;92487.28;2071102;69;20595;-78
2022/10/22 00:59:56;;;;;;;16.38;7.68;;;;;;;14.70;70.58;92492.41;2071110;69;20128;-78
2022/10/22 01:02:22;;;;;;;16.48;7.18;;;;;;;14.66;70.84;92486.59;2071200;69;20148;-77
2022/10/22 01:04:47;;;;;;;18.17;7.40;;;;;;;14.77;69.60;92487.03;2071280;69;20171;-78
2022/10/22 01:07:19;;;;;;;18.98;7.20;;;;;;;14.81;69.66;92490.03;2071300;69;20140;-77
2022/10/22 01:10:09;;;;;;;15.38;6.88;;;;;;;14.84;69.51;92491.56;2067563;69;20136;-77
2022/10/22 01:12:35;;;;;;;11.57;5.90;;;;;;;14.84;68.45;92486.63;2071086;69;20144;-78
2022/10/22 01:15:13;;;;;;;20.77;7.95;;;;;;;14.46;71.74;92485.69;2071448;69;20227;-78
2022/10/22 01:18:04;;;;;;;18.02;7.90;;;;;;;14.67;70.65;92481.66;2071177;69;20168;-78
2022/10/22 01:20:55;;;;;;;15.10;7.38;;;;;;;14.75;70.38;92496.16;2071278;69;20592;-78
2022/10/22 01:23:54;;;;;;;13.00;7.03;;;;;;;14.58;70.42;92500.41;2071520;69;20136;-78
2022/10/22 01:26:28;;;;;;;15.50;7.55;;;;;;;14.36;73.51;92508.66;2068224;69;20153;-78
2022/10/22 01:29:21;;;;;;;16.25;7.55;;;;;;;14.62;72.30;92511.94;2071478;69;20510;-79
2022/10/22 01:31:58;;;;;;;16.95;7.75;;;;;;;14.59;72.47;92507.53;2071352;69;20592;-78
2022/10/22 01:34:26;;;;;;;12.35;7.35;;;;;;;14.55;71.35;92512.28;2071670;69;20208;-79
2022/10/22 01:36:55;;;;;;;16.17;7.82;;;;;;;14.11;75.33;92526.66;2067925;69;20207;-78
2022/10/22 01:39:24;;;;;;;20.48;7.20;;;;;;;14.46;71.72;92534.56;2071354;69;20182;-75
2022/10/22 01:41:54;;;;;;;19.20;8.00;;;;;;;14.57;70.81;92537.88;2071124;69;20197;-78
2022/10/22 01:44:23;;;;;;;14.48;7.03;;;;;;;14.61;71.33;92547.28;2071215;69;20175;-78
2022/10/22 01:46:53;;;;;;;12.80;7.30;;;;;;;14.59;71.90;92552.84;2067791;69;20164;-77
2022/10/22 01:49:54;;;;;;;21.80;7.60;;;;;;;14.66;71.92;92554.59;2071168;69;20179;-78
2022/10/22 01:52:20;;;;;;;16.02;7.63;;;;;;;14.66;71.93;92570.84;2065855;69;20148;-77
2022/10/22 01:55:06;;;;;;;18.63;7.43;;;;;;;14.40;72.49;92585.28;2071503;69;20151;-79
2022/10/22 01:57:40;;;;;;;12.52;7.05;;;;;;;14.50;74.00;92585.03;2071595;69;20124;-79
2022/10/22 02:00:13;;;;;;;17.33;6.65;;;;;;;14.58;70.61;92588.22;2071719;69;20154;-79
2022/10/22 02:02:59;;;;;;;14.18;7.05;;;;;;;14.64;72.33;92610.44;2071490;69;20155;-80
2022/10/22 02:05:40;;;;;;;17.77;7.38;;;;;;;14.65;71.87;92597.72;2071580;69;20136;-78
2022/10/22 02:08:18;;;;;;;21.17;7.47;;;;;;;14.67;70.34;92604.22;2067963;69;20267;-78
2022/10/22 02:10:46;;;;;;;16.40;7.45;;;;;;;14.67;70.38;92607.06;2067882;69;20136;-78
2022/10/22 02:13:17;;;;;;;17.02;7.53;;;;;;;14.56;72.84;92610.78;2071538;69;20144;-78
2022/10/22 02:15:45;;;;;;;16.58;7.13;;;;;;;14.48;73.63;92619.66;2068193;69;20499;-78
2022/10/22 02:18:11;;;;;;;16.98;7.60;;;;;;;14.57;72.70;92625.69;2071172;69;20207;-77
2022/10/22 02:20:40;;;;;;;17.98;6.78;;;;;;;14.60;72.46;92619.47;2071083;69;20142;-78
2022/10/22 02:23:07;;;;;;;21.88;8.15;;;;;;;14.65;71.63;92628.88;2067894;69;20136;-78
2022/10/22 02:25:39;;;;;;;16.70;7.70;;;;;;;14.68;71.39;92625.50;2071111;69;20162;-77
2022/10/22 02:28:07;;;;;;;15.10;7.33;;;;;;;14.69;71.69;92634.72;2071294;69;20613;-77
2022/10/22 02:30:34;;;;;;;13.60;7.35;;;;;;;14.68;70.21;92642.50;2071103;69;20268;-77
2022/10/22 02:33:07;;;;;;;12.35;6.93;;;;;;;14.67;70.84;92646.72;2068083;69;20690;-78
2022/10/22 02:35:35;;;;;;;13.23;7.47;;;;;;;14.66;70.90;92659.44;2071481;69;20514;-76
2022/10/22 02:38:02;;;;;;;14.75;7.32;;;;;;;14.70;71.20;92665.25;2071283;69;20247;-78
2022/10/22 02:40:30;;;;;;;14.77;6.75;;;;;;;14.73;69.82;92657.59;2071375;69;20148;-77
2022/10/22 02:42:55;;;;;;;13.77;6.80;;;;;;;14.70;69.74;92662.41;2071089;69;20143;-76
2022/10/22 02:45:21;;;;;;;14.07;7.13;;;;;;;14.53;71.73;92663.06;2071085;69;20132;-77
2022/10/22 02:47:47;;;;;;;17.00;8.52;;;;;;;14.31;76.34;92662.03;2071172;69;20172;-77
2022/10/22 02:50:13;;;;;;;19.23;8.43;;;;;;;14.42;74.75;92676.00;2071021;69;20133;-77
2022/10/22 02:52:39;;;;;;;18.23;7.93;;;;;;;14.51;73.86;92677.13;2065182;69;20228;-79
2022/10/22 02:55:06;;;;;;;15.88;7.55;;;;;;;14.55;73.13;92679.41;2071523;69;20175;-79
2022/10/22 02:57:32;;;;;;;16.67;7.47;;;;;;;14.64;71.95;92679.16;2071576;69;20151;-78
2022/10/22 03:00:01;;;;;;;16.42;6.93;;;;;;;14.64;71.36;92678.41;2068328;69;20172;-79
2022/10/22 03:02:26;;;;;;;18.92;7.50;;;;;;;14.68;70.02;92693.50;2071481;69;20674;-79
2022/10/22 03:04:52;;;;;;;15.27;7.72;;;;;;;14.58;72.17;92697.97;2072134;69;20148;-79
2022/10/22 03:07:17;;;;;;;16.90;7.45;;;;;;;14.40;75.83;92698.56;2071994;69;20175;-78
2022/10/22 03:09:43;;;;;;;19.50;7.78;;;;;;;14.57;72.94;92705.00;2072156;69;20483;-79
2022/10/22 03:12:08;;;;;;;18.77;7.97;;;;;;;14.60;72.16;92700.91;2071978;69;20518;-78
2022/10/22 03:14:34;;;;;;;13.75;6.68;;;;;;;14.63;72.39;92705.28;2072066;69;20499;-79
2022/10/22 03:17:00;;;;;;;19.50;6.80;;;;;;;14.65;71.72;92708.22;2068623;69;20175;-78
2022/10/22 03:19:26;;;;;;;19.40;8.50;;;;;;;13.83;82.22;92710.00;2072196;69;20613;-78
2022/10/22 03:21:59;;;;;;;17.33;7.60;;;;;;;14.31;77.11;92708.06;2072043;69;20212;-79
2022/10/22 03:24:29;;;;;;;13.32;7.55;;;;;;;14.48;74.14;92715.25;2072083;69;20147;-78
2022/10/22 03:26:57;;;;;;;13.80;6.93;;;;;;;14.56;73.48;92729.75;2065971;69;20336;-79
2022/10/22 03:29:26;;;;;;;18.13;7.10;;;;;;;14.61;72.61;92737.09;2072038;69;20144;-79
2022/10/22 03:31:53;;;;;;;14.88;7.88;;;;;;;14.53;75.02;92736.00;2068643;69;20145;-78
2022/10/22 03:34:19;;;;;;;14.13;7.18;;;;;;;14.62;73.33;92744.22;2072203;69;20251;-78
2022/10/22 03:36:45;;;;;;;14.43;7.55;;;;;;;14.59;73.59;92748.31;2072092;69;20515;-78
2022/10/22 03:39:13;;;;;;;12.48;7.20;;;;;;;14.58;72.90;92755.38;2072006;69;20629;-79
2022/10/22 03:41:40;;;;;;;14.50;6.38;;;;;;;14.64;71.62;92769.09;2072030;69;20180;-78
2022/10/22 03:44:05;;;;;;;14.07;6.50;;;;;;;14.66;70.53;92781.25;2071969;69;20186;-79
2022/10/22 03:46:31;;;;;;;9.57;6.35;;;;;;;14.67;71.60;92762.16;2072026;69;20591;-77
2022/10/22 03:48:57;;;;;;;13.48;7.43;;;;;;;14.58;72.65;92775.19;2068688;69;20195;-78
2022/10/22 03:51:25;;;;;;;14.20;7.25;;;;;;;14.60;73.08;92777.38;2072120;69;20152;-78
2022/10/22 03:53:51;;;;;;;13.65;7.20;;;;;;;14.55;74.48;92778.56;2068708;69;20140;-79
2022/10/22 03:56:16;;;;;;;16.83;7.68;;;;;;;14.48;74.30;92777.56;2072031;69;20187;-78
2022/10/22 03:58:42;;;;;;;14.85;7.00;;;;;;;14.42;75.95;92765.91;2072033;69;20136;-79
2022/10/22 04:01:10;;;;;;;17.67;7.72;;;;;;;14.24;77.58;92774.25;2071876;69;20238;-79
2022/10/22 04:03:38;;;;;;;17.90;8.18;;;;;;;14.32;76.22;92788.06;2072071;69;20180;-79
2022/10/22 04:06:12;;;;;;;12.07;7.28;;;;;;;14.47;75.09;92802.25;2072129;69;20226;-78
2022/10/22 04:08:39;;;;;;;18.85;8.40;;;;;;;14.55;74.75;92798.41;2071990;69;20712;-79
2022/10/22 04:11:05;;;;;;;18.05;8.55;;;;;;;14.57;74.27;92807.75;2072064;69;20243;-78
2022/10/22 04:13:31;;;;;;;17.85;6.95;;;;;;;14.57;72.24;92801.31;2071939;69;20139;-79
2022/10/22 04:16:09;;;;;;;13.93;5.40;;;;;;;14.61;72.13;92801.50;2072012;69;20142;-77
2022/10/22 04:18:37;;;;;;;12.98;4.72;;;;;;;14.65;71.65;92798.88;2071951;69;20646;-78
2022/10/22 04:21:04;;;;;;;8.25;4.50;;;;;;;14.66;73.11;92812.41;2071931;69;20136;-78
2022/10/22 04:23:30;;;;;;;12.93;5.28;;;;;;;14.66;73.01;92812.41;2071928;69;20164;-77
2022/10/22 04:26:07;;;;;;;17.00;6.07;;;;;;;14.63;74.36;92819.34;2071724;69;20265;-78
2022/10/22 04:28:35;;;;;;;10.98;5.40;;;;;;;14.64;72.45;92806.66;2071944;69;20136;-78
2022/10/22 04:31:07;;;;;;;7.43;4.38;;;;;;;14.66;73.10;92826.59;2071749;69;20160;-77
2022/10/22 04:33:33;;;;;;;10.57;4.47;;;;;;;14.65;73.63;92832.88;2071980;69;20180;-78
2022/10/22 04:35:58;;;;;;;12.10;6.63;;;;;;;14.55;75.73;92833.13;2071946;69;20252;-77
2022/10/22 04:38:24;;;;;;;16.00;4.22;;;;;;;14.46;73.70;92828.41;2068564;69;20152;-78
2022/10/22 04:40:49;;;;;;;9.50;3.78;;;;;;;14.49;75.09;92830.72;2071975;69;20144;-77
2022/10/22 04:43:15;;;;;;;10.63;4.68;;;;;;;14.52;74.48;92834.38;2071920;69;20498;-78
2022/10/22 04:45:40;;;;;;;11.68;4.38;;;;;;;14.48;76.62;92823.59;2071935;69;20526;-79
2022/10/22 04:48:06;;;;;;;8.85;3.85;;;;;;;14.55;72.55;92812.56;2076709;69;20156;-78
2022/10/22 04:50:32;;;;;;;10.35;3.70;;;;;;;14.62;73.65;92812.22;2077034;69;20224;-76
2022/10/22 04:52:58;;;;;;;10.55;3.78;;;;;;;14.64;72.27;92809.47;2074508;69;20148;-76
2022/10/22 04:55:23;;;;;;;9.25;4.35;;;;;;;14.58;71.66;92811.31;2077787;69;20155;-75
2022/10/22 04:57:49;;;;;;;10.23;5.70;;;;;;;14.62;73.07;92815.06;2078302;69;20245;-77
2022/10/22 05:00:16;;;;;;;15.77;5.55;;;;;;;14.62;72.79;92817.16;2074757;69;20652;-77
2022/10/22 05:02:43;;;;;;;9.07;4.35;;;;;;;14.64;72.59;92820.81;2069755;69;20140;-79
2022/10/22 05:05:10;;;;;;;8.30;4.10;;;;;;;14.64;72.36;92826.47;2072660;69;20259;-79
2022/10/22 05:07:36;;;;;;;9.32;4.20;;;;;;;14.62;72.86;92823.56;2072460;69;20182;-79
2022/10/22 05:10:01;;;;;;;6.85;3.28;;;;;;;14.52;73.34;92817.38;2069103;69;20505;-79
2022/10/22 05:12:28;;;;;;;6.03;3.63;;;;;;;14.56;72.53;92811.91;2072140;69;20598;-79
2022/10/22 05:14:55;;;;;;;7.72;3.40;;;;;;;14.61;72.82;92810.00;2071985;69;20226;-79
2022/10/22 05:17:21;;;;;;;4.68;2.80;;;;;;;14.62;72.85;92808.66;2071749;69;20595;-77
2022/10/22 05:19:46;;;;;;;6.80;3.00;;;;;;;14.55;72.70;92813.28;2071841;69;20137;-77
2022/10/22 05:22:12;;;;;;;6.65;3.13;;;;;;;14.62;73.30;92820.00;2068484;69;20238;-78
2022/10/22 05:24:38;;;;;;;10.40;3.33;;;;;;;14.64;73.40;92822.91;2068387;69;20172;-78
2022/10/22 05:27:04;;;;;;;8.63;3.08;;;;;;;14.53;74.99;92832.31;2071616;69;20168;-78
2022/10/22 05:29:29;;;;;;;8.38;3.17;;;;;;;14.54;72.86;92840.16;2071831;69;20160;-78
2022/10/22 05:31:55;;;;;;;9.30;4.10;;;;;;;14.58;71.54;92837.53;2071554;69;20148;-78
2022/10/22 05:34:20;;;;;;;8.95;3.40;;;;;;;14.55;72.78;92835.94;2071922;69;20151;-78
2022/10/22 05:36:46;;;;;;;6.80;3.20;;;;;;;14.56;71.57;92840.25;2071756;69;20166;-78
2022/10/22 05:39:12;;;;;;;5.72;3.10;;;;;;;14.59;72.15;92839.00;2071921;69;20455;-78
2022/10/22 05:41:37;;;;;;;9.90;3.47;;;;;;;14.56;73.96;92842.34;2068490;69;20572;-78
2022/10/22 05:44:04;;;;;;;12.27;3.70;;;;;;;14.57;71.92;92843.81;2068260;69;20144;-78
2022/10/22 05:46:34;;;;;;;8.10;3.50;;;;;;;14.52;73.94;92845.72;2068265;69;20144;-78
2022/10/22 05:49:05;;;;;;;11.60;4.00;;;;;;;14.52;74.40;92851.38;2068510;69;20163;-78
2022/10/22 05:51:33;;;;;;;7.72;4.55;;;;;;;14.53;73.81;92849.31;2071808;69;20151;-77
2022/10/22 05:54:01;;;;;;;7.82;3.72;;;;;;;14.54;72.67;92842.25;2071796;69;20247;-77
2022/10/22 05:56:30;;;;;;;6.10;3.33;;;;;;;14.49;72.54;92844.91;2071787;69;20239;-77
2022/10/22 05:58:56;;;;;;;8.90;3.00;;;;;;;14.52;72.18;92850.66;2071810;69;20231;-77
2022/10/22 06:01:27;;;;;;;8.95;5.00;;;;;;;14.49;72.75;92839.22;2071637;69;20189;-76
2022/10/22 06:03:55;;;;;;;27.00;16.02;;;;;;;14.44;74.37;92851.72;2068395;69;20148;-77
2022/10/22 06:06:24;;;;;;;28.25;15.80;;;;;;;14.50;73.33;92862.63;2071764;69;20235;-76
2022/10/22 06:08:52;;;;;;;11.73;6.18;;;;;;;14.46;73.47;92859.56;2071754;69;20140;-77
2022/10/22 06:11:19;;;;;;;10.02;3.05;;;;;;;14.51;72.24;92854.84;2071756;69;20591;-77
2022/10/22 06:13:45;;;;;;;5.65;2.72;;;;;;;14.49;71.53;92852.66;2068352;69;20615;-77
2022/10/22 06:16:11;;;;;;;10.25;5.10;;;;;;;14.34;74.30;92870.28;2071628;69;20598;-77
2022/10/22 06:18:37;;;;;;;8.63;3.80;;;;;;;14.35;72.18;92866.09;2071736;69;20136;-77
2022/10/22 06:21:08;;;;;;;9.60;4.40;;;;;;;14.30;74.51;92859.50;2071632;69;20602;-77
2022/10/22 06:23:34;;;;;;;8.80;4.70;;;;;;;14.40;73.88;92874.16;2071618;69;20144;-74
2022/10/22 06:26:00;;;;;;;10.32;5.03;;;;;;;14.41;74.05;92874.91;2071676;69;20151;-76
2022/10/22 06:28:26;;;;;;;9.88;5.63;;;;;;;14.42;73.70;92888.41;2071617;69;20306;-76
2022/10/22 06:30:52;;;;;;;10.05;4.20;;;;;;;14.43;72.39;92889.13;2071599;69;20224;-75
2022/10/22 06:33:18;;;;;;;6.10;2.97;;;;;;;14.49;71.39;92893.06;2071567;69;20582;-75
2022/10/22 06:35:44;;;;;;;6.70;2.47;;;;;;;14.48;70.92;92900.09;2071603;69;20515;-75
2022/10/22 06:38:10;;;;;;;12.27;7.18;;;;;;;14.34;73.47;92907.09;2068019;69;20180;-76
2022/10/22 06:40:36;;;;;;;11.43;6.30;;;;;;;13.90;77.59;92903.47;2071799;69;20609;-75
2022/10/22 06:43:02;;;;;;;13.40;7.88;;;;;;;14.03;77.10;92916.16;2071579;69;20140;-76
2022/10/22 06:45:28;;;;;;;10.88;7.30;;;;;;;14.18;75.97;92918.34;2072520;69;20467;-76
2022/10/22 06:47:54;;;;;;;13.00;7.07;;;;;;;14.28;75.19;92930.19;2071501;69;20148;-76
2022/10/22 06:50:20;;;;;;;10.52;6.35;;;;;;;14.35;73.47;92931.97;2071635;69;20179;-75
2022/10/22 06:52:45;;;;;;;10.48;4.90;;;;;;;14.35;73.94;92922.75;2071572;69;20224;-75
2022/10/22 06:55:11;;;;;;;6.70;2.60;;;;;;;14.40;72.91;92933.63;2068122;69;20168;-75
2022/10/22 06:57:37;;;;;;;6.22;2.88;;;;;;;14.45;71.57;92943.06;2071434;69;20487;-75
2022/10/22 07:00:05;;;;;;;7.50;3.92;;;;;;;14.42;73.54;92942.22;2071581;69;20151;-75
2022/10/22 07:02:30;;;;;;;9.88;3.75;;;;;;;14.41;72.91;92935.09;2071357;69;20687;-75
2022/10/22 07:04:56;;;;;;;7.90;3.38;;;;;;;14.41;74.24;92940.75;2071570;69;20143;-75
2022/10/22 07:07:22;;;;;;;5.60;2.88;;;;;;;14.46;73.57;92953.03;2068077;69;20668;-76
2022/10/22 07:09:48;;;;;;;4.88;2.30;;;;;;;14.48;73.67;92956.75;2068158;69;20159;-75
2022/10/22 07:12:15;;;;;;;8.85;3.38;;;;;;;14.37;74.20;92959.66;2071553;69;20225;-76
2022/10/22 07:14:40;;;;;;;10.25;4.78;;;;;;;14.22;76.94;92961.75;2068161;69;20625;-76
2022/10/22 07:17:06;;;;;;;12.93;7.78;;;;;;;14.37;73.92;92974.53;2071428;69;20148;-75
2022/10/22 07:19:32;;;;;;;15.40;8.63;;;;;;;14.40;73.53;92969.72;2071479;69;20155;-75
2022/10/22 07:21:57;;;;;;;14.25;8.70;;;;;;;14.46;72.32;92981.34;2071439;69;20175;-77
2022/10/22 07:24:23;;;;;;;15.07;9.75;;;;;;;14.45;73.70;92982.72;2071491;69;20148;-76
2022/10/22 07:26:50;;;;;;;13.25;9.05;;;;;;;14.45;73.69;92983.47;2068274;69;20160;-75
2022/10/22 07:29:15;;;;;;;17.23;8.35;;;;;;;14.46;71.45;92982.09;2071704;69;20149;-75
2022/10/22 07:31:41;;;;;;;12.63;7.15;;;;;;;14.37;72.91;92991.53;2071549;69;20140;-76
2022/10/22 07:34:07;;;;;;;13.52;7.72;;;;;;;14.49;72.29;92999.97;2071577;69;20179;-77
2022/10/22 07:36:33;;;;;;;11.25;6.15;;;;;;;14.50;74.22;92995.75;2072184;69;20180;-76
2022/10/22 07:39:00;;;;;;;10.35;5.47;;;;;;;14.54;73.15;93001.63;2071591;69;20533;-77
2022/10/22 07:41:28;;;;;;;15.27;7.22;;;;;;;14.58;71.78;93009.63;2071380;69;20140;-76
2022/10/22 07:43:56;;;;;;;14.00;7.95;;;;;;;14.57;71.73;93010.97;2071338;69;20156;-76
2022/10/22 07:46:22;;;;;;;14.75;8.00;;;;;;;14.18;76.57;93008.94;2067839;69;20171;-76
2022/10/22 07:48:48;;;;;;;19.30;11.25;;;;;;;14.22;76.56;93009.91;2068018;69;20148;-76
2022/10/22 07:51:14;;;;;;;12.13;5.50;;;;;;;14.27;74.80;93022.16;2068604;69;20209;-76
2022/10/22 07:53:39;;;;;;;14.90;8.52;;;;;;;14.25;77.06;93019.25;2071811;69;20175;-77
2022/10/22 07:56:06;;;;;;;16.20;9.00;;;;;;;14.37;74.20;93019.84;2071786;69;20239;-77
2022/10/22 07:58:32;;;;;;;16.40;8.88;;;;;;;14.49;73.14;93028.28;2071806;69;20257;-76
2022/10/22 08:00:59;;;;;;;15.10;9.05;;;;;;;14.49;71.98;93026.19;2068368;69;20636;-77
2022/10/22 08:03:28;;;;;;;17.48;8.50;;;;;;;14.26;75.31;93031.31;2071951;69;20160;-77
2022/10/22 08:05:54;;;;;;;17.75;6.47;;;;;;;14.14;74.84;93034.22;2071771;69;20152;-77
2022/10/22 08:08:20;;;;;;;10.88;5.90;;;;;;;14.24;74.61;93040.41;2071874;69;20662;-77
2022/10/22 08:10:47;;;;;;;16.30;5.65;;;;;;;14.19;75.56;93045.13;2068578;69;20235;-76
2022/10/22 08:13:15;;;;;;;9.35;5.00;;;;;;;14.41;72.95;93042.00;2071849;69;20149;-77
2022/10/22 08:15:41;;;;;;;14.02;6.20;;;;;;;14.54;72.95;93051.91;2071796;69;20133;-77
2022/10/22 08:18:08;;;;;;;10.70;4.95;;;;;;;14.51;73.20;93050.31;2071741;69;20255;-76
2022/10/22 08:20:34;;;;;;;14.32;7.10;;;;;;;14.58;73.18;93060.59;2071772;69;20533;-76
2022/10/22 08:22:59;;;;;;;16.20;8.38;;;;;;;14.58;72.70;93052.09;2071735;69;20151;-76
2022/10/22 08:25:26;;;;;;;12.50;6.68;;;;;;;14.54;73.75;93049.06;2071705;69;20144;-77
2022/10/22 08:27:52;;;;;;;11.63;5.10;;;;;;;14.59;72.19;93054.31;2071726;69;20160;-76
2022/10/22 08:30:18;;;;;;;8.13;4.10;;;;;;;14.61;70.77;93051.56;2071728;69;20596;-76
2022/10/22 08:32:44;;;;;;;7.07;4.40;;;;;;;14.63;72.60;93057.34;2068324;69;20145;-75
2022/10/22 08:35:10;;;;;;;8.35;4.20;;;;;;;14.59;72.80;93056.41;2071907;69;20506;-76
2022/10/22 08:37:35;;;;;;;9.93;4.70;;;;;;;14.62;73.42;93053.06;2071814;69;20144;-76
2022/10/22 08:40:02;;;;;;;7.80;3.90;;;;;;;14.61;72.70;93059.31;2065675;69;20245;-76
2022/10/22 08:43:01;;;;;;;7.38;3.33;;;;;;;14.60;73.09;93055.75;2071810;69;20132;-76
2022/10/22 08:45:56;;;;;;;8.38;3.20;;;;;;;14.61;74.34;93048.00;2071685;69;20223;-76
2022/10/22 08:48:30;;;;;;;7.03;3.40;;;;;;;14.69;72.70;93048.41;2063773;69;20176;-76
2022/10/22 08:50:56;;;;;;;8.07;3.63;;;;;;;14.72;71.41;93064.16;2068342;69;20195;-76
2022/10/22 08:53:40;;;;;;;7.75;3.63;;;;;;;14.70;72.25;93064.78;2071801;69;20179;-75
2022/10/22 08:56:07;;;;;;;7.53;3.03;;;;;;;14.74;70.11;93065.00;2068566;69;20140;-74
2022/10/22 08:59:09;;;;;;;6.10;3.63;;;;;;;14.75;72.21;93060.06;2071783;69;20506;-76
2022/10/22 09:01:40;;;;;;;10.20;5.35;;;;;;;14.79;72.27;93056.69;2071507;69;20152;-74
2022/10/22 09:04:32;;;;;;;12.27;5.22;;;;;;;14.83;72.11;93066.13;2071808;69;20201;-75
2022/10/22 09:06:59;;;;;;;11.13;6.15;;;;;;;14.68;73.87;93059.03;2071771;69;20176;-75
2022/10/22 09:09:35;;;;;;;11.65;6.35;;;;;;;14.32;77.15;93069.16;2068421;69;20128;-75
2022/10/22 09:12:03;;;;;;;9.82;5.88;;;;;;;14.68;74.25;93064.69;2067718;69;20156;-75
2022/10/22 09:14:29;;;;;;;10.00;5.80;;;;;;;14.91;72.84;93080.00;2071762;69;20175;-75
2022/10/22 09:17:10;;;;;;;12.20;6.63;;;;;;;15.05;70.35;93080.72;2071617;69;20231;-76
2022/10/22 09:19:53;;;;;;;10.82;5.55;;;;;;;15.11;68.63;93083.13;2071825;69;20160;-77
2022/10/22 09:22:39;;;;;;;11.38;5.28;;;;;;;15.13;69.58;93081.13;2071667;69;20180;-77
2022/10/22 09:25:20;;;;;;;13.32;6.50;;;;;;;15.03;70.49;93077.78;2071688;69;20151;-78
2022/10/22 09:27:47;;;;;;;12.35;6.38;;;;;;;15.13;69.85;93086.06;2068499;69;20608;-77
2022/10/22 09:30:20;;;;;;;11.73;6.28;;;;;;;15.19;70.25;93084.25;2071686;69;20530;-77
2022/10/22 09:32:46;;;;;;;;;;;;;;;15.22;69.09;93073.75;2071758;69;20151;-77
2022/10/22 09:35:14;;;;;;;8.40;5.15;;;;;;;15.23;69.98;93067.44;2071730;69;20057;-77
2022/10/22 09:37:48;;;;;;;11.38;5.72;;;;;;;15.09;70.55;93063.91;2071348;69;20664;-77
2022/10/22 09:40:15;;;;;;;14.02;6.00;;;;;;;14.96;73.91;93059.00;2070783;69;20587;-77
2022/10/22 09:42:42;;;;;;;13.23;7.43;;;;;;;14.92;74.67;93064.47;2071282;69;20590;-77
2022/10/22 09:45:23;;;;;;;11.02;6.32;;;;;;;15.32;69.63;93065.75;2070761;69;20152;-77
2022/10/22 09:47:49;;;;;;;11.82;6.38;;;;;;;15.68;69.02;93054.72;2070677;69;20623;-77
2022/10/22 09:50:27;;;;;;;8.60;5.85;;;;;;;15.87;67.55;93053.47;2070755;69;20187;-77
2022/10/22 09:53:13;;;;;;;11.63;6.20;;;;;;;16.09;70.99;93062.31;2071014;69;20666;-77
2022/10/22 09:55:42;;;;;;;7.40;4.00;;;;;;;15.84;70.36;93060.44;2071557;69;20247;-77
2022/10/22 09:58:13;;;;;;;13.25;5.18;;;;;;;16.29;70.99;93068.91;2071560;69;20152;-76
2022/10/22 10:00:42;;;;;;;12.68;4.32;;;;;;;16.88;67.80;93073.66;2071528;69;20144;-77
2022/10/22 10:03:16;;;;;;;8.77;3.60;;;;;;;17.23;67.64;93084.41;2071476;69;20151;-77
2022/10/22 10:05:42;;;;;;;7.90;3.45;;;;;;;17.13;66.66;93076.16;2068257;69;20147;-77
2022/10/22 10:08:17;;;;;;;9.15;3.75;;;;;;;17.24;65.35;93071.66;2071605;69;20580;-78
2022/10/22 10:10:47;;;;;;;9.70;3.05;;;;;;;17.28;64.94;93069.69;2070813;69;20151;-77
2022/10/22 10:13:51;;;;;;;11.70;4.82;;;;;;;17.32;63.65;93063.44;2071032;69;20140;-76
2022/10/22 10:16:30;;;;;;;9.10;3.40;;;;;;;17.28;63.23;93063.28;2071216;69;20151;-75
2022/10/22 10:19:18;;;;;;;3.85;2.67;;;;;;;17.44;63.68;93066.78;2068123;69;20144;-75
2022/10/22 10:22:21;;;;;;;11.55;3.55;;;;;;;17.34;65.33;93069.22;2071181;69;20152;-77
2022/10/22 10:24:55;;;;;;;6.35;3.10;;;;;;;17.48;64.05;93066.94;2051062;70;20146;-75
2022/10/22 10:27:41;;;;;;;7.35;3.33;;;;;;;17.17;64.09;93069.91;2053860;70;20134;-78
2022/10/22 10:30:22;;;;;;;6.93;3.58;;;;;;;17.00;65.24;93066.38;2051321;70;20240;-77
2022/10/22 10:33:06;;;;;;;5.88;3.42;;;;;;;17.22;64.96;93060.88;2050757;70;20225;-76
2022/10/22 10:35:54;;;;;;;8.85;3.60;;;;;;;16.83;66.60;93057.81;2053752;70;20141;-76
2022/10/22 10:38:34;;;;;;;5.95;3.28;;;;;;;17.49;65.06;93051.34;2053865;69;20234;-77
2022/10/22 10:41:09;;;;;;;5.45;3.38;;;;;;;17.50;64.44;93058.50;2053931;70;20166;-76
2022/10/22 10:43:50;;;;;;;12.30;5.13;;;;;;;17.37;64.33;93053.69;2053984;69;20145;-76
2022/10/22 10:46:51;;;;;;;11.60;5.07;;;;;;;17.98;62.00;93053.31;2053573;70;20138;-76
2022/10/22 10:49:23;;;;;;;7.53;4.28;;;;;;;18.53;61.11;93060.34;2047187;70;20150;-76
2022/10/22 10:52:10;;;;;;;9.65;3.88;;;;;;;18.83;61.76;93055.06;2047199;70;20210;-76
2022/10/22 10:54:51;;;;;;;6.93;3.40;;;;;;;18.96;60.52;93056.22;2047199;70;20293;-76
2022/10/22 10:57:35;;;;;;;8.52;3.50;;;;;;;18.60;60.88;93055.59;2044113;70;20154;-77
2022/10/22 11:00:09;;;;;;;7.85;3.53;;;;;;;18.53;60.75;93051.81;2046875;70;20142;-77
2022/10/22 11:03:19;;;;;;;8.85;3.17;;;;;;;18.51;60.17;93049.63;2052167;70;20146;-76
2022/10/22 11:06:07;;;;;;;8.48;3.00;;;;;;;19.14;59.60;93044.72;2052737;70;20614;-75
2022/10/22 11:09:05;;;;;;;7.95;3.03;;;;;;;19.53;57.65;93046.75;2053210;70;20160;-76
2022/10/22 11:11:46;;;;;;;7.38;2.97;;;;;;;19.87;57.46;93047.16;2053648;69;20142;-76
2022/10/22 11:14:24;;;;;;;7.28;2.92;;;;;;;20.21;57.09;93035.34;2053400;70;20158;-78
2022/10/22 11:17:03;;;;;;;4.97;2.55;;;;;;;20.43;56.59;93038.13;2053468;70;20177;-79
2022/10/22 11:19:49;;;;;;;8.32;2.33;;;;;;;20.84;55.30;93037.19;2053552;70;20141;-78
2022/10/22 11:22:30;;;;;;;7.28;2.38;;;;;;;19.78;54.68;93040.47;2053461;70;20158;-78
2022/10/22 11:24:59;;;;;;;10.30;2.92;;;;;;;20.11;54.33;93035.03;2053948;69;20243;-78
2022/10/22 11:27:39;;;;;;;6.43;2.47;;;;;;;20.09;53.76;93046.41;2068208;69;20152;-77
2022/10/22 11:30:15;;;;;;;8.60;2.88;;;;;;;20.12;54.52;93034.38;2064911;69;20348;-77
2022/10/22 11:32:45;;;;;;;18.33;2.75;;;;;;;21.48;52.36;93039.66;2068084;69;20219;-82
2022/10/22 11:35:24;;;;;;;5.97;2.15;;;;;;;20.76;50.92;93031.28;2068266;69;20623;-73
2022/10/22 11:37:51;;;;;;;4.72;1.80;;;;;;;21.24;51.71;93040.44;2068261;69;20188;-74
2022/10/22 11:40:31;;;;;;;8.00;2.40;;;;;;;20.69;51.73;93036.06;2068245;69;20151;-75
2022/10/22 11:43:02;;;;;;;5.43;1.88;;;;;;;19.62;55.15;93030.66;2068203;69;20144;-74
2022/10/22 11:46:01;;;;;;;5.72;2.45;;;;;;;19.82;56.46;93034.16;2064880;69;20152;-75